sensor_id;sensor_type;location;lat;lon;timestamp;temperature;humidity
47961;DHT22;33721;48.852;9.936;2023-10-09T00:01:43;11.90;99.90
47961;DHT22;33721;48.852;9.936;2023-10-09T00:04:12;11.90;99.90
47961;DHT22;33721;48.852;9.936;2023-10-09T00:06:39;11.90;99.90
47961;DHT22;33721;48.852;9.936;2023-10-09T00:09:08;11.90;99.90
47961;DHT22;33721;48.852;9.936;2023-10-09T00:11:43;11.80;99.90
47961;DHT22;33721;48.852;9.936;2023-10-09T00:14:10;11.80;99.90
47961;DHT22;33721;48.852;9.936;2023-10-09T00:16:36;11.80;99.90
47961;DHT22;33721;48.852;9.936;2023-10-09T00:19:09;11.70;99.90
47961;DHT22;33721;48.852;9.936;2023-10-09T00:21:41;11.70;99.90
47961;DHT22;33721;48.852;9.936;2023-10-09T00:24:07;11.60;99.90
47961;DHT22;33721;48.852;9.936;2023-10-09T00:26:40;11.60;99.90
47961;DHT22;33721;48.852;9.936;2023-10-09T00:29:13;11.60;99.90
47961;DHT22;33721;48.852;9.936;2023-10-09T00:31:43;11.60;99.90
47961;DHT22;33721;48.852;9.936;2023-10-09T00:34:18;11.50;99.90
47961;DHT22;33721;48.852;9.936;2023-10-09T00:36:46;11.50;99.90
47961;DHT22;33721;48.852;9.936;2023-10-09T00:39:18;11.50;99.90
47961;DHT22;33721;48.852;9.936;2023-10-09T00:42:09;11.50;99.90
47961;DHT22;33721;48.852;9.936;2023-10-09T00:44:38;11.50;99.90
47961;DHT22;33721;48.852;9.936;2023-10-09T00:47:09;11.50;99.90
47961;DHT22;33721;48.852;9.936;2023-10-09T00:49:58;11.50;99.90
47961;DHT22;33721;48.852;9.936;2023-10-09T00:52:33;11.40;99.90
47961;DHT22;33721;48.852;9.936;2023-10-09T00:55:06;11.40;99.90
47961;DHT22;33721;48.852;9.936;2023-10-09T00:57:47;11.50;99.90
47961;DHT22;33721;48.852;9.936;2023-10-09T01:00:19;11.50;99.90
47961;DHT22;33721;48.852;9.936;2023-10-09T01:02:58;11.50;99.90
47961;DHT22;33721;48.852;9.936;2023-10-09T01:05:38;11.50;99.90
47961;DHT22;33721;48.852;9.936;2023-10-09T01:08:11;11.50;99.90
47961;DHT22;33721;48.852;9.936;2023-10-09T01:10:49;11.60;99.90
47961;DHT22;33721;48.852;9.936;2023-10-09T01:13:46;11.60;99.90
47961;DHT22;33721;48.852;9.936;2023-10-09T01:16:12;11.70;99.90
47961;DHT22;33721;48.852;9.936;2023-10-09T01:18:45;11.70;99.90
47961;DHT22;33721;48.852;9.936;2023-10-09T01:21:12;11.70;99.90
47961;DHT22;33721;48.852;9.936;2023-10-09T01:23:40;11.70;99.90
47961;DHT22;33721;48.852;9.936;2023-10-09T01:26:25;11.70;99.90
47961;DHT22;33721;48.852;9.936;2023-10-09T01:28:51;11.70;99.90
47961;DHT22;33721;48.852;9.936;2023-10-09T01:31:18;11.60;99.90
47961;DHT22;33721;48.852;9.936;2023-10-09T01:33:46;11.50;99.90
47961;DHT22;33721;48.852;9.936;2023-10-09T01:36:12;11.50;99.90
47961;DHT22;33721;48.852;9.936;2023-10-09T01:38:40;11.40;99.90
47961;DHT22;33721;48.852;9.936;2023-10-09T01:41:11;11.40;99.90
47961;DHT22;33721;48.852;9.936;2023-10-09T01:43:41;11.40;99.90
47961;DHT22;33721;48.852;9.936;2023-10-09T01:46:10;11.40;99.90
47961;DHT22;33721;48.852;9.936;2023-10-09T01:48:36;11.30;99.90
47961;DHT22;33721;48.852;9.936;2023-10-09T01:51:13;11.30;99.90
47961;DHT22;33721;48.852;9.936;2023-10-09T01:53:46;11.30;99.90
47961;DHT22;33721;48.852;9.936;2023-10-09T01:56:22;11.20;99.90
47961;DHT22;33721;48.852;9.936;2023-10-09T01:58:48;11.20;99.90
47961;DHT22;33721;48.852;9.936;2023-10-09T02:01:16;11.20;99.90
47961;DHT22;33721;48.852;9.936;2023-10-09T02:03:41;11.10;99.90
47961;DHT22;33721;48.852;9.936;2023-10-09T02:06:09;11.00;99.90
47961;DHT22;33721;48.852;9.936;2023-10-09T02:08:55;11.00;99.90
47961;DHT22;33721;48.852;9.936;2023-10-09T02:11:21;11.00;99.90
47961;DHT22;33721;48.852;9.936;2023-10-09T02:14:02;11.10;99.90
47961;DHT22;33721;48.852;9.936;2023-10-09T02:16:31;11.10;99.90
47961;DHT22;33721;48.852;9.936;2023-10-09T02:19:07;11.10;99.90
47961;DHT22;33721;48.852;9.936;2023-10-09T02:21:34;11.10;99.90
47961;DHT22;33721;48.852;9.936;2023-10-09T02:24:05;11.20;99.90
47961;DHT22;33721;48.852;9.936;2023-10-09T02:26:34;11.20;99.90
47961;DHT22;33721;48.852;9.936;2023-10-09T02:29:06;11.20;99.90
47961;DHT22;33721;48.852;9.936;2023-10-09T02:31:38;11.20;99.90
47961;DHT22;33721;48.852;9.936;2023-10-09T02:34:09;11.20;99.90
47961;DHT22;33721;48.852;9.936;2023-10-09T02:36:36;11.10;99.90
47961;DHT22;33721;48.852;9.936;2023-10-09T02:39:08;11.00;99.90
47961;DHT22;33721;48.852;9.936;2023-10-09T02:41:49;11.00;99.90
47961;DHT22;33721;48.852;9.936;2023-10-09T02:44:16;10.90;99.90
47961;DHT22;33721;48.852;9.936;2023-10-09T02:46:42;10.90;99.90
47961;DHT22;33721;48.852;9.936;2023-10-09T02:49:10;10.90;99.90
47961;DHT22;33721;48.852;9.936;2023-10-09T02:51:41;10.80;99.90
47961;DHT22;33721;48.852;9.936;2023-10-09T02:54:13;10.80;99.90
47961;DHT22;33721;48.852;9.936;2023-10-09T02:56:52;10.90;99.90
47961;DHT22;33721;48.852;9.936;2023-10-09T02:59:24;10.90;99.90
47961;DHT22;33721;48.852;9.936;2023-10-09T03:01:49;11.00;99.90
47961;DHT22;33721;48.852;9.936;2023-10-09T03:04:18;11.00;99.90
47961;DHT22;33721;48.852;9.936;2023-10-09T03:06:45;11.30;99.90
47961;DHT22;33721;48.852;9.936;2023-10-09T03:09:19;11.50;99.90
47961;DHT22;33721;48.852;9.936;2023-10-09T03:11:59;11.60;99.90
47961;DHT22;33721;48.852;9.936;2023-10-09T03:14:29;11.70;99.90
47961;DHT22;33721;48.852;9.936;2023-10-09T03:16:56;11.60;99.90
47961;DHT22;33721;48.852;9.936;2023-10-09T03:19:23;11.60;99.90
47961;DHT22;33721;48.852;9.936;2023-10-09T03:21:50;11.50;99.90
47961;DHT22;33721;48.852;9.936;2023-10-09T03:24:16;11.40;99.90
47961;DHT22;33721;48.852;9.936;2023-10-09T03:26:43;11.30;99.90
47961;DHT22;33721;48.852;9.936;2023-10-09T03:29:12;11.30;99.90
47961;DHT22;33721;48.852;9.936;2023-10-09T03:31:38;11.30;99.90
47961;DHT22;33721;48.852;9.936;2023-10-09T03:34:04;11.30;99.90
47961;DHT22;33721;48.852;9.936;2023-10-09T03:36:30;11.20;99.90
47961;DHT22;33721;48.852;9.936;2023-10-09T03:39:07;11.30;99.90
47961;DHT22;33721;48.852;9.936;2023-10-09T03:42:04;11.80;99.90
47961;DHT22;33721;48.852;9.936;2023-10-09T03:44:33;12.10;99.90
47961;DHT22;33721;48.852;9.936;2023-10-09T03:47:01;12.10;99.90
47961;DHT22;33721;48.852;9.936;2023-10-09T03:49:30;12.20;99.90
47961;DHT22;33721;48.852;9.936;2023-10-09T03:51:57;12.30;99.90
47961;DHT22;33721;48.852;9.936;2023-10-09T03:54:25;12.50;99.90
47961;DHT22;33721;48.852;9.936;2023-10-09T03:56:50;12.80;99.90
47961;DHT22;33721;48.852;9.936;2023-10-09T03:59:17;12.90;99.90
47961;DHT22;33721;48.852;9.936;2023-10-09T04:01:45;13.10;99.90
47961;DHT22;33721;48.852;9.936;2023-10-09T04:04:12;13.00;99.90
47961;DHT22;33721;48.852;9.936;2023-10-09T04:06:39;13.00;99.90
47961;DHT22;33721;48.852;9.936;2023-10-09T04:09:10;13.10;99.90
47961;DHT22;33721;48.852;9.936;2023-10-09T04:11:51;13.20;99.90
47961;DHT22;33721;48.852;9.936;2023-10-09T04:14:50;13.50;99.90
47961;DHT22;33721;48.852;9.936;2023-10-09T04:17:20;13.50;99.90
47961;DHT22;33721;48.852;9.936;2023-10-09T04:19:55;13.40;99.90
47961;DHT22;33721;48.852;9.936;2023-10-09T04:22:40;13.10;99.90
47961;DHT22;33721;48.852;9.936;2023-10-09T04:25:25;12.80;99.90
47961;DHT22;33721;48.852;9.936;2023-10-09T04:27:52;12.60;99.90
47961;DHT22;33721;48.852;9.936;2023-10-09T04:30:19;12.70;99.90
47961;DHT22;33721;48.852;9.936;2023-10-09T04:32:44;12.70;99.90
47961;DHT22;33721;48.852;9.936;2023-10-09T04:35:11;12.80;99.90
47961;DHT22;33721;48.852;9.936;2023-10-09T04:37:48;13.00;99.90
47961;DHT22;33721;48.852;9.936;2023-10-09T04:40:30;13.00;99.90
47961;DHT22;33721;48.852;9.936;2023-10-09T04:43:14;13.00;99.90
47961;DHT22;33721;48.852;9.936;2023-10-09T04:45:48;12.80;99.90
47961;DHT22;33721;48.852;9.936;2023-10-09T04:48:31;12.70;99.90
47961;DHT22;33721;48.852;9.936;2023-10-09T04:51:07;12.60;99.90
47961;DHT22;33721;48.852;9.936;2023-10-09T04:54:00;12.60;99.90
47961;DHT22;33721;48.852;9.936;2023-10-09T04:56:39;12.50;99.90
47961;DHT22;33721;48.852;9.936;2023-10-09T04:59:20;12.40;99.90
47961;DHT22;33721;48.852;9.936;2023-10-09T05:01:51;12.40;99.90
47961;DHT22;33721;48.852;9.936;2023-10-09T05:04:26;12.30;99.90
47961;DHT22;33721;48.852;9.936;2023-10-09T05:07:06;12.30;99.90
47961;DHT22;33721;48.852;9.936;2023-10-09T05:09:52;12.30;99.90
47961;DHT22;33721;48.852;9.936;2023-10-09T05:12:21;12.40;99.90
47961;DHT22;33721;48.852;9.936;2023-10-09T05:14:51;12.50;99.90
47961;DHT22;33721;48.852;9.936;2023-10-09T05:17:38;12.60;99.90
47961;DHT22;33721;48.852;9.936;2023-10-09T05:20:05;12.90;99.90
47961;DHT22;33721;48.852;9.936;2023-10-09T05:22:50;13.20;99.90
47961;DHT22;33721;48.852;9.936;2023-10-09T05:25:33;13.60;99.90
47961;DHT22;33721;48.852;9.936;2023-10-09T05:28:17;13.80;99.90
47961;DHT22;33721;48.852;9.936;2023-10-09T05:30:58;13.90;99.90
47961;DHT22;33721;48.852;9.936;2023-10-09T05:33:36;14.00;99.90
47961;DHT22;33721;48.852;9.936;2023-10-09T05:36:04;14.20;99.90
47961;DHT22;33721;48.852;9.936;2023-10-09T05:39:02;14.20;99.90
47961;DHT22;33721;48.852;9.936;2023-10-09T05:41:51;14.20;99.90
47961;DHT22;33721;48.852;9.936;2023-10-09T05:44:16;14.40;99.90
47961;DHT22;33721;48.852;9.936;2023-10-09T05:47:00;14.40;99.90
47961;DHT22;33721;48.852;9.936;2023-10-09T05:49:45;14.70;99.90
47961;DHT22;33721;48.852;9.936;2023-10-09T05:52:23;14.90;99.90
47961;DHT22;33721;48.852;9.936;2023-10-09T05:55:05;15.00;99.90
47961;DHT22;33721;48.852;9.936;2023-10-09T05:57:43;15.00;99.90
47961;DHT22;33721;48.852;9.936;2023-10-09T06:00:21;15.00;99.90
47961;DHT22;33721;48.852;9.936;2023-10-09T06:03:05;15.00;99.90
47961;DHT22;33721;48.852;9.936;2023-10-09T06:05:46;15.10;99.90
47961;DHT22;33721;48.852;9.936;2023-10-09T06:08:22;15.20;99.90
47961;DHT22;33721;48.852;9.936;2023-10-09T06:11:10;15.30;99.90
47961;DHT22;33721;48.852;9.936;2023-10-09T06:13:55;15.40;99.90
47961;DHT22;33721;48.852;9.936;2023-10-09T06:16:39;15.40;99.90
47961;DHT22;33721;48.852;9.936;2023-10-09T06:19:13;15.40;99.90
47961;DHT22;33721;48.852;9.936;2023-10-09T06:21:45;15.50;99.90
47961;DHT22;33721;48.852;9.936;2023-10-09T06:24:29;15.40;99.90
47961;DHT22;33721;48.852;9.936;2023-10-09T06:27:11;15.40;99.90
47961;DHT22;33721;48.852;9.936;2023-10-09T06:29:41;15.30;99.90
47961;DHT22;33721;48.852;9.936;2023-10-09T06:32:13;15.40;99.90
47961;DHT22;33721;48.852;9.936;2023-10-09T06:34:46;15.50;99.90
47961;DHT22;33721;48.852;9.936;2023-10-09T06:37:20;15.50;99.90
47961;DHT22;33721;48.852;9.936;2023-10-09T06:39:55;15.50;99.90
47961;DHT22;33721;48.852;9.936;2023-10-09T06:42:25;15.50;99.90
47961;DHT22;33721;48.852;9.936;2023-10-09T06:45:03;15.50;99.90
47961;DHT22;33721;48.852;9.936;2023-10-09T06:47:52;15.50;99.90
47961;DHT22;33721;48.852;9.936;2023-10-09T06:50:56;15.60;99.90
47961;DHT22;33721;48.852;9.936;2023-10-09T06:53:30;15.60;99.90
47961;DHT22;33721;48.852;9.936;2023-10-09T06:56:14;15.70;99.90
47961;DHT22;33721;48.852;9.936;2023-10-09T06:58:51;15.90;99.90
47961;DHT22;33721;48.852;9.936;2023-10-09T07:01:21;16.00;99.90
47961;DHT22;33721;48.852;9.936;2023-10-09T07:03:56;16.00;99.90
47961;DHT22;33721;48.852;9.936;2023-10-09T07:06:42;16.00;99.90
47961;DHT22;33721;48.852;9.936;2023-10-09T07:09:08;16.00;99.90
47961;DHT22;33721;48.852;9.936;2023-10-09T07:11:38;16.00;99.90
47961;DHT22;33721;48.852;9.936;2023-10-09T07:14:21;16.00;99.90
47961;DHT22;33721;48.852;9.936;2023-10-09T07:16:56;16.00;99.90
47961;DHT22;33721;48.852;9.936;2023-10-09T07:19:26;16.00;99.90
47961;DHT22;33721;48.852;9.936;2023-10-09T07:22:21;16.10;99.90
47961;DHT22;33721;48.852;9.936;2023-10-09T07:27:22;16.20;99.90
47961;DHT22;33721;48.852;9.936;2023-10-09T07:30:08;16.20;99.90
47961;DHT22;33721;48.852;9.936;2023-10-09T07:35:43;16.10;99.90
47961;DHT22;33721;48.852;9.936;2023-10-09T07:38:19;16.20;99.90
47961;DHT22;33721;48.852;9.936;2023-10-09T07:40:46;16.20;99.90
47961;DHT22;33721;48.852;9.936;2023-10-09T07:43:26;16.30;99.90
47961;DHT22;33721;48.852;9.936;2023-10-09T07:46:04;16.40;99.90
47961;DHT22;33721;48.852;9.936;2023-10-09T07:48:30;16.40;99.90
47961;DHT22;33721;48.852;9.936;2023-10-09T07:51:14;16.50;99.90
47961;DHT22;33721;48.852;9.936;2023-10-09T07:53:40;16.60;99.90
47961;DHT22;33721;48.852;9.936;2023-10-09T07:56:12;16.60;99.90
47961;DHT22;33721;48.852;9.936;2023-10-09T07:58:49;16.70;99.90
47961;DHT22;33721;48.852;9.936;2023-10-09T08:01:15;16.70;99.90
47961;DHT22;33721;48.852;9.936;2023-10-09T08:03:47;16.80;99.90
47961;DHT22;33721;48.852;9.936;2023-10-09T08:06:13;16.80;99.90
47961;DHT22;33721;48.852;9.936;2023-10-09T08:08:57;16.80;99.90
47961;DHT22;33721;48.852;9.936;2023-10-09T08:11:38;16.80;99.90
47961;DHT22;33721;48.852;9.936;2023-10-09T08:14:25;16.90;99.90
47961;DHT22;33721;48.852;9.936;2023-10-09T08:17:00;16.90;99.90
47961;DHT22;33721;48.852;9.936;2023-10-09T08:19:41;17.00;99.90
47961;DHT22;33721;48.852;9.936;2023-10-09T08:22:25;17.00;99.90
47961;DHT22;33721;48.852;9.936;2023-10-09T08:24:52;17.10;99.90
47961;DHT22;33721;48.852;9.936;2023-10-09T08:27:27;17.10;99.90
47961;DHT22;33721;48.852;9.936;2023-10-09T08:30:12;17.20;99.90
47961;DHT22;33721;48.852;9.936;2023-10-09T08:32:48;17.20;99.90
47961;DHT22;33721;48.852;9.936;2023-10-09T08:35:33;17.20;99.90
47961;DHT22;33721;48.852;9.936;2023-10-09T08:38:01;17.30;99.90
47961;DHT22;33721;48.852;9.936;2023-10-09T08:40:34;17.40;99.90
47961;DHT22;33721;48.852;9.936;2023-10-09T08:43:15;17.50;99.90
47961;DHT22;33721;48.852;9.936;2023-10-09T08:48:11;17.60;99.90
47961;DHT22;33721;48.852;9.936;2023-10-09T08:50:47;17.60;99.90
47961;DHT22;33721;48.852;9.936;2023-10-09T08:53:13;17.70;99.90
47961;DHT22;33721;48.852;9.936;2023-10-09T08:55:41;17.70;99.90
47961;DHT22;33721;48.852;9.936;2023-10-09T08:58:07;17.70;99.90
47961;DHT22;33721;48.852;9.936;2023-10-09T09:00:42;17.70;99.90
47961;DHT22;33721;48.852;9.936;2023-10-09T09:03:11;17.70;99.90
47961;DHT22;33721;48.852;9.936;2023-10-09T09:05:37;17.70;99.90
47961;DHT22;33721;48.852;9.936;2023-10-09T09:08:03;17.80;99.90
47961;DHT22;33721;48.852;9.936;2023-10-09T09:10:29;17.90;99.90
47961;DHT22;33721;48.852;9.936;2023-10-09T09:13:03;17.90;99.90
47961;DHT22;33721;48.852;9.936;2023-10-09T09:15:32;18.00;99.90
47961;DHT22;33721;48.852;9.936;2023-10-09T09:18:06;18.10;99.90
47961;DHT22;33721;48.852;9.936;2023-10-09T09:20:32;18.10;99.90
47961;DHT22;33721;48.852;9.936;2023-10-09T09:23:02;18.20;99.90
47961;DHT22;33721;48.852;9.936;2023-10-09T09:25:46;18.30;99.90
47961;DHT22;33721;48.852;9.936;2023-10-09T09:28:23;18.50;99.90
47961;DHT22;33721;48.852;9.936;2023-10-09T09:30:48;18.70;99.90
47961;DHT22;33721;48.852;9.936;2023-10-09T09:33:24;18.90;99.90
47961;DHT22;33721;48.852;9.936;2023-10-09T09:36:05;19.00;99.90
47961;DHT22;33721;48.852;9.936;2023-10-09T09:38:33;18.90;99.90
47961;DHT22;33721;48.852;9.936;2023-10-09T09:41:08;18.80;99.90
47961;DHT22;33721;48.852;9.936;2023-10-09T09:43:36;18.80;99.90
47961;DHT22;33721;48.852;9.936;2023-10-09T09:46:02;18.90;99.90
47961;DHT22;33721;48.852;9.936;2023-10-09T09:48:37;18.90;99.90
47961;DHT22;33721;48.852;9.936;2023-10-09T09:51:05;19.00;99.90
47961;DHT22;33721;48.852;9.936;2023-10-09T09:53:34;19.00;99.90
47961;DHT22;33721;48.852;9.936;2023-10-09T09:56:00;19.00;99.90
47961;DHT22;33721;48.852;9.936;2023-10-09T09:58:28;19.00;99.90
47961;DHT22;33721;48.852;9.936;2023-10-09T10:01:09;19.10;99.90
47961;DHT22;33721;48.852;9.936;2023-10-09T10:03:49;19.20;99.90
47961;DHT22;33721;48.852;9.936;2023-10-09T10:06:19;19.40;99.90
47961;DHT22;33721;48.852;9.936;2023-10-09T10:08:47;19.80;99.90
47961;DHT22;33721;48.852;9.936;2023-10-09T10:11:45;20.30;99.90
47961;DHT22;33721;48.852;9.936;2023-10-09T10:14:15;20.60;99.90
47961;DHT22;33721;48.852;9.936;2023-10-09T10:17:06;20.90;99.90
47961;DHT22;33721;48.852;9.936;2023-10-09T10:22:27;21.50;99.90
47961;DHT22;33721;48.852;9.936;2023-10-09T10:24:53;21.80;99.90
47961;DHT22;33721;48.852;9.936;2023-10-09T10:27:25;22.10;99.90
47961;DHT22;33721;48.852;9.936;2023-10-09T10:32:59;21.60;99.30
47961;DHT22;33721;48.852;9.936;2023-10-09T10:35:41;21.50;99.90
47961;DHT22;33721;48.852;9.936;2023-10-09T10:38:31;21.40;99.90
47961;DHT22;33721;48.852;9.936;2023-10-09T10:41:08;21.10;99.20
47961;DHT22;33721;48.852;9.936;2023-10-09T10:43:36;20.90;99.90
47961;DHT22;33721;48.852;9.936;2023-10-09T10:46:21;20.70;99.90
47961;DHT22;33721;48.852;9.936;2023-10-09T10:48:58;20.60;99.90
47961;DHT22;33721;48.852;9.936;2023-10-09T10:51:34;20.50;99.90
47961;DHT22;33721;48.852;9.936;2023-10-09T10:54:04;20.50;99.90
47961;DHT22;33721;48.852;9.936;2023-10-09T10:56:48;20.40;99.90
47961;DHT22;33721;48.852;9.936;2023-10-09T10:59:15;20.40;99.90
47961;DHT22;33721;48.852;9.936;2023-10-09T11:01:52;20.40;99.90
47961;DHT22;33721;48.852;9.936;2023-10-09T11:04:39;20.30;99.90
47961;DHT22;33721;48.852;9.936;2023-10-09T11:07:08;20.30;99.90
47961;DHT22;33721;48.852;9.936;2023-10-09T11:10:03;20.20;99.90
47961;DHT22;33721;48.852;9.936;2023-10-09T11:15:14;20.10;99.90
47961;DHT22;33721;48.852;9.936;2023-10-09T11:20:31;20.00;99.90
47961;DHT22;33721;48.852;9.936;2023-10-09T11:22:59;20.00;99.90
47961;DHT22;33721;48.852;9.936;2023-10-09T11:25:46;20.10;99.90
47961;DHT22;33721;48.852;9.936;2023-10-09T11:28:19;20.10;99.90
47961;DHT22;33721;48.852;9.936;2023-10-09T11:31:09;20.10;99.90
47961;DHT22;33721;48.852;9.936;2023-10-09T11:33:51;20.00;99.90
47961;DHT22;33721;48.852;9.936;2023-10-09T11:36:18;20.00;99.90
47961;DHT22;33721;48.852;9.936;2023-10-09T11:38:57;20.00;99.90
47961;DHT22;33721;48.852;9.936;2023-10-09T11:41:43;20.00;99.90
47961;DHT22;33721;48.852;9.936;2023-10-09T11:44:10;20.00;99.90
47961;DHT22;33721;48.852;9.936;2023-10-09T11:47:00;20.00;99.90
47961;DHT22;33721;48.852;9.936;2023-10-09T11:52:22;20.00;99.90
47961;DHT22;33721;48.852;9.936;2023-10-09T11:54:57;20.00;99.90
47961;DHT22;33721;48.852;9.936;2023-10-09T11:57:25;19.90;99.90
47961;DHT22;33721;48.852;9.936;2023-10-09T12:00:05;19.70;99.90
47961;DHT22;33721;48.852;9.936;2023-10-09T12:02:51;19.50;99.90
47961;DHT22;33721;48.852;9.936;2023-10-09T12:05:17;19.30;99.90
47961;DHT22;33721;48.852;9.936;2023-10-09T12:07:45;19.20;99.90
47961;DHT22;33721;48.852;9.936;2023-10-09T12:10:11;19.10;99.90
47961;DHT22;33721;48.852;9.936;2023-10-09T12:12:39;19.10;99.90
47961;DHT22;33721;48.852;9.936;2023-10-09T12:15:06;19.10;99.90
47961;DHT22;33721;48.852;9.936;2023-10-09T12:17:32;19.00;99.90
47961;DHT22;33721;48.852;9.936;2023-10-09T12:19:58;19.10;99.90
47961;DHT22;33721;48.852;9.936;2023-10-09T12:22:24;19.20;99.90
47961;DHT22;33721;48.852;9.936;2023-10-09T12:24:52;19.30;99.90
47961;DHT22;33721;48.852;9.936;2023-10-09T12:27:19;19.40;99.90
47961;DHT22;33721;48.852;9.936;2023-10-09T12:29:46;19.50;99.90
47961;DHT22;33721;48.852;9.936;2023-10-09T12:32:11;19.60;99.90
47961;DHT22;33721;48.852;9.936;2023-10-09T12:34:39;19.70;99.90
47961;DHT22;33721;48.852;9.936;2023-10-09T12:37:04;19.80;99.90
47961;DHT22;33721;48.852;9.936;2023-10-09T12:39:31;19.90;99.90
47961;DHT22;33721;48.852;9.936;2023-10-09T12:42:05;20.00;99.90
47961;DHT22;33721;48.852;9.936;2023-10-09T12:44:34;20.30;99.90
47961;DHT22;33721;48.852;9.936;2023-10-09T12:47:07;20.50;99.90
47961;DHT22;33721;48.852;9.936;2023-10-09T12:49:33;20.60;99.90
47961;DHT22;33721;48.852;9.936;2023-10-09T12:51:58;20.60;99.90
47961;DHT22;33721;48.852;9.936;2023-10-09T12:54:27;20.60;99.90
47961;DHT22;33721;48.852;9.936;2023-10-09T12:56:56;20.70;99.90
47961;DHT22;33721;48.852;9.936;2023-10-09T12:59:23;20.70;99.90
47961;DHT22;33721;48.852;9.936;2023-10-09T13:01:49;20.60;99.90
47961;DHT22;33721;48.852;9.936;2023-10-09T13:04:18;20.60;99.90
47961;DHT22;33721;48.852;9.936;2023-10-09T13:06:48;20.50;99.90
47961;DHT22;33721;48.852;9.936;2023-10-09T13:09:18;20.60;99.90
47961;DHT22;33721;48.852;9.936;2023-10-09T13:11:58;20.80;99.90
47961;DHT22;33721;48.852;9.936;2023-10-09T13:14:26;20.80;99.90
47961;DHT22;33721;48.852;9.936;2023-10-09T13:16:52;20.90;99.90
47961;DHT22;33721;48.852;9.936;2023-10-09T13:19:18;20.90;99.90
47961;DHT22;33721;48.852;9.936;2023-10-09T13:21:44;20.90;99.90
47961;DHT22;33721;48.852;9.936;2023-10-09T13:24:10;20.90;99.90
47961;DHT22;33721;48.852;9.936;2023-10-09T13:26:44;20.90;99.90
47961;DHT22;33721;48.852;9.936;2023-10-09T13:29:16;20.90;99.90
47961;DHT22;33721;48.852;9.936;2023-10-09T13:31:48;20.90;99.90
47961;DHT22;33721;48.852;9.936;2023-10-09T13:34:15;20.90;99.90
47961;DHT22;33721;48.852;9.936;2023-10-09T13:36:41;20.90;99.90
47961;DHT22;33721;48.852;9.936;2023-10-09T13:39:21;21.00;99.90
47961;DHT22;33721;48.852;9.936;2023-10-09T13:41:55;21.00;99.90
47961;DHT22;33721;48.852;9.936;2023-10-09T13:44:42;21.10;99.90
47961;DHT22;33721;48.852;9.936;2023-10-09T13:47:08;21.20;99.90
47961;DHT22;33721;48.852;9.936;2023-10-09T13:49:47;21.30;99.90
47961;DHT22;33721;48.852;9.936;2023-10-09T13:52:17;21.40;99.90
47961;DHT22;33721;48.852;9.936;2023-10-09T13:54:47;21.50;99.90
47961;DHT22;33721;48.852;9.936;2023-10-09T13:57:16;21.80;99.90
47961;DHT22;33721;48.852;9.936;2023-10-09T13:59:42;22.20;99.90
47961;DHT22;33721;48.852;9.936;2023-10-09T14:02:15;22.50;99.90
47961;DHT22;33721;48.852;9.936;2023-10-09T14:04:46;22.60;98.40
47961;DHT22;33721;48.852;9.936;2023-10-09T14:07:12;22.70;96.70
47961;DHT22;33721;48.852;9.936;2023-10-09T14:09:42;22.70;96.30
47961;DHT22;33721;48.852;9.936;2023-10-09T14:12:21;22.70;97.60
47961;DHT22;33721;48.852;9.936;2023-10-09T14:14:49;22.70;97.40
47961;DHT22;33721;48.852;9.936;2023-10-09T14:17:23;22.60;97.80
47961;DHT22;33721;48.852;9.936;2023-10-09T14:19:50;22.40;97.70
47961;DHT22;33721;48.852;9.936;2023-10-09T14:22:25;22.30;98.10
47961;DHT22;33721;48.852;9.936;2023-10-09T14:24:52;22.20;97.30
47961;DHT22;33721;48.852;9.936;2023-10-09T14:27:22;22.20;97.80
47961;DHT22;33721;48.852;9.936;2023-10-09T14:29:52;22.40;96.50
47961;DHT22;33721;48.852;9.936;2023-10-09T14:32:21;22.60;96.00
47961;DHT22;33721;48.852;9.936;2023-10-09T14:34:54;22.70;95.50
47961;DHT22;33721;48.852;9.936;2023-10-09T14:37:26;22.90;96.80
47961;DHT22;33721;48.852;9.936;2023-10-09T14:39:52;22.80;95.40
47961;DHT22;33721;48.852;9.936;2023-10-09T14:42:18;22.60;95.40
47961;DHT22;33721;48.852;9.936;2023-10-09T14:44:45;22.50;95.50
47961;DHT22;33721;48.852;9.936;2023-10-09T14:47:12;22.40;96.30
47961;DHT22;33721;48.852;9.936;2023-10-09T14:49:39;22.40;96.30
47961;DHT22;33721;48.852;9.936;2023-10-09T14:52:12;22.30;95.60
47961;DHT22;33721;48.852;9.936;2023-10-09T14:54:42;22.20;94.50
47961;DHT22;33721;48.852;9.936;2023-10-09T14:57:10;22.20;95.20
47961;DHT22;33721;48.852;9.936;2023-10-09T14:59:37;22.20;96.00
47961;DHT22;33721;48.852;9.936;2023-10-09T15:02:03;22.20;95.80
47961;DHT22;33721;48.852;9.936;2023-10-09T15:04:31;22.30;95.40
47961;DHT22;33721;48.852;9.936;2023-10-09T15:06:57;22.20;95.40
47961;DHT22;33721;48.852;9.936;2023-10-09T15:09:23;22.10;96.90
47961;DHT22;33721;48.852;9.936;2023-10-09T15:11:50;22.10;96.50
47961;DHT22;33721;48.852;9.936;2023-10-09T15:14:17;22.00;97.60
47961;DHT22;33721;48.852;9.936;2023-10-09T15:16:47;21.90;95.90
47961;DHT22;33721;48.852;9.936;2023-10-09T15:19:13;21.90;97.10
47961;DHT22;33721;48.852;9.936;2023-10-09T15:21:40;21.70;97.50
47961;DHT22;33721;48.852;9.936;2023-10-09T15:24:13;21.60;97.80
47961;DHT22;33721;48.852;9.936;2023-10-09T15:26:48;21.50;98.90
47961;DHT22;33721;48.852;9.936;2023-10-09T15:29:20;21.30;98.40
47961;DHT22;33721;48.852;9.936;2023-10-09T15:31:54;21.30;98.90
47961;DHT22;33721;48.852;9.936;2023-10-09T15:34:20;21.10;99.30
47961;DHT22;33721;48.852;9.936;2023-10-09T15:36:46;21.00;99.60
47961;DHT22;33721;48.852;9.936;2023-10-09T15:39:15;21.00;99.40
47961;DHT22;33721;48.852;9.936;2023-10-09T15:41:45;21.00;99.50
47961;DHT22;33721;48.852;9.936;2023-10-09T15:44:11;20.90;99.40
47961;DHT22;33721;48.852;9.936;2023-10-09T15:46:39;21.00;99.10
47961;DHT22;33721;48.852;9.936;2023-10-09T15:49:05;21.00;98.50
47961;DHT22;33721;48.852;9.936;2023-10-09T15:51:34;21.00;98.30
47961;DHT22;33721;48.852;9.936;2023-10-09T15:54:00;21.00;98.40
47961;DHT22;33721;48.852;9.936;2023-10-09T15:56:27;21.00;98.30
47961;DHT22;33721;48.852;9.936;2023-10-09T15:58:53;21.00;98.30
47961;DHT22;33721;48.852;9.936;2023-10-09T16:01:19;21.00;98.70
47961;DHT22;33721;48.852;9.936;2023-10-09T16:03:46;21.00;98.90
47961;DHT22;33721;48.852;9.936;2023-10-09T16:06:17;20.90;98.90
47961;DHT22;33721;48.852;9.936;2023-10-09T16:08:47;20.90;99.80
47961;DHT22;33721;48.852;9.936;2023-10-09T16:11:19;20.80;99.90
47961;DHT22;33721;48.852;9.936;2023-10-09T16:13:44;20.70;99.20
47961;DHT22;33721;48.852;9.936;2023-10-09T16:16:10;20.70;99.80
47961;DHT22;33721;48.852;9.936;2023-10-09T16:18:38;20.60;99.90
47961;DHT22;33721;48.852;9.936;2023-10-09T16:21:05;20.60;99.90
47961;DHT22;33721;48.852;9.936;2023-10-09T16:23:34;20.40;99.90
47961;DHT22;33721;48.852;9.936;2023-10-09T16:25:59;20.40;99.90
47961;DHT22;33721;48.852;9.936;2023-10-09T16:28:28;20.30;99.90